Time;durP1;ratioP1;P1;durP2;ratioP2;P2;SDS_P1;SDS_P2;PMS_P1;PMS_P2;Temp;Humidity;BMP_temperature;BMP_pressure;BME280_temperature;BME280_humidity;BME280_pressure;Samples;Min_cycle;Max_cycle;Signal;HPM_P1;HPM_P2
2023/07/30 00:01:42;;;;;;;0.13;0.13;;;15.00;99.90;;;;;;5113940;27;20038;-69
2023/07/30 00:04:08;;;;;;;0.55;0.55;;;15.00;99.90;;;;;;5097908;27;20469;-69
2023/07/30 00:06:33;;;;;;;0.63;0.63;;;15.00;99.90;;;;;;5094468;27;20080;-69
2023/07/30 00:08:59;;;;;;;1.10;0.47;;;15.00;99.90;;;;;;5103324;27;20397;-69
2023/07/30 00:11:24;;;;;;;0.22;0.22;;;15.00;99.90;;;;;;5096176;27;20043;-69
2023/07/30 00:13:50;;;;;;;0.63;0.63;;;15.00;99.90;;;;;;5132171;27;20390;-69
2023/07/30 00:16:16;;;;;;;0.32;0.32;;;15.00;99.90;;;;;;5097296;28;20031;-68
2023/07/30 00:18:41;;;;;;;2.20;0.88;;;15.00;99.90;;;;;;5097511;28;20035;-68
2023/07/30 00:21:07;;;;;;;0.98;0.38;;;15.00;99.90;;;;;;5097756;28;20035;-69
2023/07/30 00:23:32;;;;;;;0.25;0.25;;;15.00;99.90;;;;;;5099132;28;20394;-69
2023/07/30 00:25:58;;;;;;;11.10;1.13;;;14.90;99.90;;;;;;5096528;28;20043;-68
2023/07/30 00:28:23;;;;;;;0.52;0.40;;;14.90;99.90;;;;;;5095855;28;20039;-68
2023/07/30 00:30:49;;;;;;;0.20;0.20;;;14.90;99.90;;;;;;5095793;28;20040;-68
2023/07/30 00:33:15;;;;;;;0.15;0.13;;;14.80;99.90;;;;;;5117118;28;20166;-68
2023/07/30 00:35:40;;;;;;;0.30;0.30;;;14.80;99.90;;;;;;5095020;28;20046;-68
2023/07/30 00:38:06;;;;;;;0.75;0.75;;;14.90;99.90;;;;;;5114162;27;20355;-68
2023/07/30 00:40:31;;;;;;;0.10;0.10;;;14.90;99.90;;;;;;5117996;28;20031;-68
2023/07/30 00:42:57;;;;;;;0.30;0.30;;;14.90;99.90;;;;;;5100389;28;20047;-68
2023/07/30 00:45:22;;;;;;;1.08;1.08;;;14.80;99.90;;;;;;5104415;28;20038;-68
2023/07/30 00:47:48;;;;;;;0.73;0.40;;;14.80;99.90;;;;;;5095811;28;20039;-68
2023/07/30 00:50:15;;;;;;;1.40;0.40;;;14.80;99.90;;;;;;5095852;28;20130;-68
2023/07/30 00:52:41;;;;;;;0.20;0.20;;;14.80;99.90;;;;;;5096240;28;20050;-68
2023/07/30 00:55:07;;;;;;;0.47;0.10;;;14.80;99.90;;;;;;5094831;27;20035;-68
2023/07/30 00:57:34;;;;;;;0.60;0.45;;;14.70;99.90;;;;;;5094698;28;20035;-67
2023/07/30 01:00:04;;;;;;;0.32;0.32;;;14.70;99.90;;;;;;5098121;28;20058;-67
2023/07/30 01:02:30;;;;;;;1.45;0.57;;;14.70;99.90;;;;;;5095808;28;20095;-67
2023/07/30 01:04:57;;;;;;;0.08;0.08;;;14.70;99.90;;;;;;5130559;27;20035;-67
2023/07/30 01:07:22;;;;;;;0.50;0.38;;;14.70;99.90;;;;;;5100571;27;20373;-68
2023/07/30 01:09:48;;;;;;;0.20;0.20;;;14.60;99.90;;;;;;5099334;28;20126;-68
2023/07/30 01:12:14;;;;;;;3.30;0.47;;;14.60;99.90;;;;;;5101268;27;20042;-68
2023/07/30 01:14:40;;;;;;;0.30;0.10;;;14.60;99.90;;;;;;5112090;27;20039;-68
2023/07/30 01:17:06;;;;;;;1.65;0.82;;;14.60;99.90;;;;;;5133738;27;20035;-68
2023/07/30 01:19:31;;;;;;;0.20;0.20;;;14.60;99.90;;;;;;5098420;27;20136;-68
2023/07/30 01:21:58;;;;;;;0.75;0.52;;;14.60;99.90;;;;;;5102845;27;21215;-68
2023/07/30 01:24:23;;;;;;;0.47;0.47;;;14.60;99.90;;;;;;5126032;27;20051;-68
2023/07/30 01:26:55;;;;;;;0.10;0.10;;;14.60;99.90;;;;;;5100040;27;20042;-68
2023/07/30 01:29:29;;;;;;;0.25;0.25;;;14.60;99.90;;;;;;5101294;27;20405;-68
2023/07/30 01:31:57;;;;;;;0.10;0.10;;;14.50;99.90;;;;;;5101679;27;20175;-68
2023/07/30 01:34:28;;;;;;;0.10;0.10;;;14.60;99.90;;;;;;5100540;27;20104;-68
2023/07/30 01:36:54;;;;;;;0.80;0.52;;;14.50;99.90;;;;;;5096525;27;20042;-68
2023/07/30 01:39:20;;;;;;;1.55;0.63;;;14.50;99.90;;;;;;5101949;27;20118;-68
2023/07/30 01:41:46;;;;;;;0.10;0.10;;;14.50;99.90;;;;;;5134448;27;20043;-68
2023/07/30 01:44:12;;;;;;;2.08;0.47;;;14.50;99.90;;;;;;5136967;27;20049;-68
2023/07/30 01:46:37;;;;;;;0.30;0.30;;;14.50;99.90;;;;;;5114975;27;20551;-68
2023/07/30 01:49:03;;;;;;;0.40;0.40;;;14.50;99.90;;;;;;5100544;27;20047;-68
2023/07/30 01:51:29;;;;;;;1.30;0.55;;;14.50;99.90;;;;;;5117211;27;21454;-68
2023/07/30 01:53:54;;;;;;;0.08;0.08;;;14.40;99.90;;;;;;5102014;27;20043;-68
2023/07/30 01:56:20;;;;;;;0.63;0.25;;;14.40;99.90;;;;;;5101913;27;20146;-68
2023/07/30 01:58:45;;;;;;;0.20;0.20;;;14.50;99.90;;;;;;5094849;27;20474;-68
2023/07/30 02:01:11;;;;;;;0.35;0.22;;;14.50;99.90;;;;;;5136687;27;20560;-68
2023/07/30 02:03:37;;;;;;;0.20;0.20;;;14.40;99.90;;;;;;5103854;27;20123;-68
2023/07/30 02:06:02;;;;;;;0.05;0.05;;;14.40;99.90;;;;;;5106674;27;20039;-68
2023/07/30 02:08:28;;;;;;;8.30;0.90;;;14.40;99.90;;;;;;5105507;27;20430;-68
2023/07/30 02:10:58;;;;;;;0.30;0.20;;;14.50;99.90;;;;;;5101705;27;20402;-68
2023/07/30 02:13:24;;;;;;;0.35;0.30;;;14.50;99.90;;;;;;5107004;27;20501;-68
2023/07/30 02:15:50;;;;;;;0.30;0.30;;;14.50;99.90;;;;;;5107725;27;20031;-68
2023/07/30 02:18:15;;;;;;;0.68;0.32;;;14.50;99.90;;;;;;5097917;27;20057;-68
2023/07/30 02:20:41;;;;;;;1.15;0.40;;;14.50;99.90;;;;;;5111191;27;20043;-68
2023/07/30 02:23:07;;;;;;;0.88;0.10;;;14.60;99.90;;;;;;5103162;27;20073;-68
2023/07/30 02:25:33;;;;;;;0.45;0.45;;;14.60;99.90;;;;;;5107112;27;20107;-68
2023/07/30 02:28:00;;;;;;;2.13;0.52;;;14.60;99.90;;;;;;5101029;27;20134;-68
2023/07/30 02:30:26;;;;;;;0.00;0.00;;;14.60;99.90;;;;;;5118812;27;20040;-68
2023/07/30 02:32:52;;;;;;;0.10;0.10;;;14.60;99.90;;;;;;5121019;27;20690;-68
2023/07/30 02:35:17;;;;;;;8.93;0.80;;;14.60;99.90;;;;;;5107935;27;20051;-68
2023/07/30 02:37:43;;;;;;;0.08;0.08;;;14.60;99.90;;;;;;5122741;27;20042;-68
2023/07/30 02:40:09;;;;;;;1.17;0.98;;;14.50;99.90;;;;;;5099280;27;20050;-68
2023/07/30 02:42:35;;;;;;;1.55;0.45;;;14.60;99.90;;;;;;5096806;27;20088;-68
2023/07/30 02:45:00;;;;;;;0.10;0.10;;;14.60;99.90;;;;;;5101695;27;20055;-68
2023/07/30 02:47:26;;;;;;;0.13;0.13;;;14.60;99.90;;;;;;5136824;27;20038;-68
2023/07/30 02:49:52;;;;;;;3.67;0.75;;;14.60;99.90;;;;;;5115415;27;20134;-67
2023/07/30 02:52:17;;;;;;;0.10;0.10;;;14.70;99.90;;;;;;5101826;27;20393;-68
2023/07/30 02:54:43;;;;;;;0.20;0.20;;;14.70;99.90;;;;;;5100749;27;20112;-68
2023/07/30 02:57:08;;;;;;;0.30;0.20;;;14.70;99.90;;;;;;5104146;27;20035;-67
2023/07/30 02:59:37;;;;;;;0.03;0.03;;;14.70;99.90;;;;;;5119783;27;20362;-68
2023/07/30 03:02:06;;;;;;;0.65;0.30;;;14.70;99.90;;;;;;5100036;27;20079;-68
2023/07/30 03:04:32;;;;;;;0.30;0.30;;;14.70;99.90;;;;;;5104457;27;20062;-68
2023/07/30 03:06:58;;;;;;;0.10;0.10;;;14.70;99.90;;;;;;5100676;27;20023;-68
2023/07/30 03:09:23;;;;;;;3.85;0.55;;;14.70;99.90;;;;;;5120551;27;20100;-69
2023/07/30 03:11:50;;;;;;;0.20;0.20;;;14.70;99.90;;;;;;5133607;27;20392;-67
2023/07/30 03:14:15;;;;;;;0.17;0.17;;;14.70;99.90;;;;;;5104043;27;20050;-67
2023/07/30 03:16:41;;;;;;;0.10;0.10;;;14.70;99.90;;;;;;5105477;27;20035;-68
2023/07/30 03:19:07;;;;;;;0.47;0.20;;;14.70;99.90;;;;;;5116373;27;20528;-68
2023/07/30 03:21:33;;;;;;;0.43;0.43;;;14.70;99.90;;;;;;5103416;27;20042;-68
2023/07/30 03:23:58;;;;;;;0.88;0.63;;;14.80;99.90;;;;;;5117137;27;20040;-69
2023/07/30 03:26:24;;;;;;;0.50;0.38;;;14.70;99.90;;;;;;5132571;27;20066;-69
2023/07/30 03:28:49;;;;;;;0.57;0.57;;;14.70;99.90;;;;;;5099371;27;20043;-69
2023/07/30 03:31:15;;;;;;;0.40;0.30;;;14.80;99.90;;;;;;5099024;27;20031;-68
2023/07/30 03:33:43;;;;;;;1.75;0.45;;;14.80;99.90;;;;;;5102412;27;20046;-68
2023/07/30 03:36:10;;;;;;;6.93;0.88;;;14.70;99.90;;;;;;5104328;27;20077;-68
2023/07/30 03:38:36;;;;;;;2.97;1.23;;;14.70;99.90;;;;;;5100724;27;20383;-69
2023/07/30 03:41:01;;;;;;;0.20;0.10;;;14.70;99.90;;;;;;5125799;27;20040;-68
2023/07/30 03:43:27;;;;;;;0.10;0.10;;;14.60;99.90;;;;;;5128883;27;20035;-68
2023/07/30 03:45:53;;;;;;;3.30;0.73;;;14.60;99.90;;;;;;5097837;27;20179;-68
2023/07/30 03:48:18;;;;;;;0.43;0.32;;;14.60;99.90;;;;;;5100160;27;20046;-68
2023/07/30 03:50:44;;;;;;;0.20;0.20;;;14.60;99.90;;;;;;5104887;27;20043;-68
2023/07/30 03:53:11;;;;;;;0.28;0.17;;;14.60;99.90;;;;;;5101156;27;20074;-68
2023/07/30 03:55:36;;;;;;;0.28;0.28;;;14.60;99.90;;;;;;5099323;27;20032;-68
2023/07/30 03:58:02;;;;;;;0.10;0.10;;;14.50;99.90;;;;;;5097692;27;20738;-68
2023/07/30 04:00:29;;;;;;;0.20;0.20;;;14.50;99.90;;;;;;5101855;27;20119;-68
2023/07/30 04:02:54;;;;;;;0.35;0.35;;;14.50;99.90;;;;;;5114291;27;20071;-68
2023/07/30 04:05:20;;;;;;;0.80;0.55;;;14.50;99.90;;;;;;5095911;27;20519;-68
2023/07/30 04:07:47;;;;;;;0.52;0.52;;;14.50;99.90;;;;;;5132278;27;20055;-68
2023/07/30 04:10:12;;;;;;;1.55;0.85;;;14.50;99.90;;;;;;5101510;27;20092;-68
2023/07/30 04:12:38;;;;;;;0.98;0.70;;;14.50;99.90;;;;;;5121482;27;20039;-68
2023/07/30 04:15:04;;;;;;;1.20;0.20;;;14.50;99.90;;;;;;5104904;28;20050;-68
2023/07/30 04:17:30;;;;;;;0.32;0.32;;;14.50;99.90;;;;;;5102390;28;20035;-67
2023/07/30 04:19:55;;;;;;;0.20;0.20;;;14.60;99.90;;;;;;5101785;28;20039;-68
2023/07/30 04:22:21;;;;;;;0.77;0.77;;;14.60;99.90;;;;;;5101231;28;20035;-68
2023/07/30 04:24:47;;;;;;;0.17;0.17;;;14.60;99.90;;;;;;5101104;28;20572;-68
2023/07/30 04:27:12;;;;;;;0.10;0.10;;;14.60;99.90;;;;;;5133056;27;20041;-67
2023/07/30 04:29:38;;;;;;;1.90;0.20;;;14.60;99.90;;;;;;5095123;28;20043;-68
2023/07/30 04:32:04;;;;;;;0.30;0.30;;;14.60;99.90;;;;;;5127654;27;20148;-67
2023/07/30 04:34:29;;;;;;;1.02;0.65;;;14.70;99.90;;;;;;5098147;28;20395;-68
2023/07/30 04:36:55;;;;;;;2.42;0.77;;;14.70;99.90;;;;;;5090874;28;20042;-69
2023/07/30 04:39:20;;;;;;;0.52;0.32;;;14.80;99.90;;;;;;5105837;27;20054;-69
2023/07/30 04:41:46;;;;;;;0.35;0.20;;;14.80;99.90;;;;;;5107701;27;20652;-68
2023/07/30 04:44:12;;;;;;;1.13;0.47;;;14.90;99.90;;;;;;5106931;27;20043;-69
2023/07/30 04:46:37;;;;;;;2.22;0.85;;;14.90;99.90;;;;;;5103070;27;20092;-69
2023/07/30 04:49:06;;;;;;;1.00;0.98;;;14.90;99.90;;;;;;5122824;27;20035;-68
2023/07/30 04:51:31;;;;;;;1.38;0.73;;;15.00;99.90;;;;;;5100500;27;20043;-69
2023/07/30 04:53:57;;;;;;;0.50;0.50;;;15.00;99.90;;;;;;5103900;27;20099;-68
2023/07/30 04:56:22;;;;;;;1.67;0.17;;;15.00;99.90;;;;;;5107858;27;20477;-69
2023/07/30 04:58:48;;;;;;;0.20;0.20;;;15.10;99.90;;;;;;5100121;27;20054;-68
2023/07/30 05:01:13;;;;;;;1.40;0.10;;;15.10;99.90;;;;;;5101468;27;21254;-67
2023/07/30 05:03:39;;;;;;;0.10;0.10;;;15.20;99.90;;;;;;5102204;27;20059;-68
2023/07/30 05:06:05;;;;;;;0.20;0.20;;;15.20;99.90;;;;;;5102410;27;20043;-69
2023/07/30 05:08:30;;;;;;;2.15;0.80;;;15.20;99.90;;;;;;5106946;28;20443;-68
2023/07/30 05:10:56;;;;;;;0.17;0.17;;;15.20;99.90;;;;;;5134811;27;20123;-68
2023/07/30 05:13:22;;;;;;;0.73;0.45;;;15.30;99.90;;;;;;5104020;27;20093;-68
2023/07/30 05:15:47;;;;;;;0.52;0.52;;;15.20;99.90;;;;;;5105058;27;20531;-68
2023/07/30 05:18:13;;;;;;;2.22;0.17;;;15.30;99.90;;;;;;5132371;27;20049;-69
2023/07/30 05:20:39;;;;;;;0.80;0.80;;;15.30;99.90;;;;;;5106351;27;20048;-68
2023/07/30 05:23:06;;;;;;;0.75;0.40;;;15.40;99.90;;;;;;5102982;27;20035;-69
2023/07/30 05:25:32;;;;;;;0.28;0.28;;;15.40;99.90;;;;;;5117970;27;20047;-68
2023/07/30 05:27:58;;;;;;;0.40;0.25;;;15.50;99.90;;;;;;5097493;27;20039;-68
2023/07/30 05:30:24;;;;;;;0.52;0.52;;;15.50;99.90;;;;;;5107360;27;20469;-68
2023/07/30 05:32:49;;;;;;;0.82;0.73;;;15.60;99.90;;;;;;5107989;27;20075;-68
2023/07/30 05:35:15;;;;;;;4.07;0.45;;;15.50;99.90;;;;;;5114709;27;20194;-68
2023/07/30 05:37:41;;;;;;;0.22;0.17;;;15.60;99.90;;;;;;5120814;27;20234;-69
2023/07/30 05:40:07;;;;;;;0.93;0.47;;;15.70;99.90;;;;;;5106553;27;20045;-68
2023/07/30 05:42:32;;;;;;;0.40;0.40;;;15.70;99.90;;;;;;5105856;27;20045;-68
2023/07/30 05:44:58;;;;;;;3.20;0.95;;;15.70;99.90;;;;;;5130947;27;20466;-69
2023/07/30 05:47:24;;;;;;;0.28;0.20;;;15.70;99.90;;;;;;5110054;27;20362;-68
2023/07/30 05:49:49;;;;;;;2.15;1.30;;;15.80;99.90;;;;;;5105166;28;20054;-68
2023/07/30 05:52:15;;;;;;;0.20;0.20;;;15.80;99.90;;;;;;5102390;27;20039;-68
2023/07/30 05:54:40;;;;;;;0.30;0.30;;;15.80;99.90;;;;;;5106406;27;20405;-69
2023/07/30 05:57:06;;;;;;;2.65;1.20;;;15.80;99.90;;;;;;5108657;27;20047;-69
2023/07/30 05:59:31;;;;;;;0.20;0.20;;;15.90;99.90;;;;;;5088127;27;20122;-68
2023/07/30 06:02:01;;;;;;;0.38;0.38;;;15.90;99.90;;;;;;5113702;27;20027;-68
2023/07/30 06:04:26;;;;;;;0.45;0.45;;;16.00;99.90;;;;;;5104772;27;20082;-70
2023/07/30 06:06:52;;;;;;;0.57;0.57;;;16.00;99.90;;;;;;5107640;28;20078;-69
2023/07/30 06:09:18;;;;;;;0.20;0.20;;;16.00;99.90;;;;;;5131270;27;21342;-69
2023/07/30 06:11:43;;;;;;;0.20;0.20;;;16.10;99.90;;;;;;5101406;27;20482;-69
2023/07/30 06:14:09;;;;;;;1.85;0.82;;;16.10;99.90;;;;;;5102851;27;20043;-67
2023/07/30 06:16:35;;;;;;;2.20;0.32;;;16.20;99.90;;;;;;5105691;27;20037;-70
2023/07/30 06:19:00;;;;;;;0.40;0.40;;;16.20;99.90;;;;;;5118161;27;20421;-69
2023/07/30 06:21:26;;;;;;;0.20;0.20;;;16.20;99.90;;;;;;5099244;27;20035;-69
2023/07/30 06:23:51;;;;;;;0.52;0.52;;;16.20;99.90;;;;;;5135317;27;20027;-69
2023/07/30 06:26:17;;;;;;;0.45;0.20;;;16.30;99.90;;;;;;5135824;27;20041;-68
2023/07/30 06:28:42;;;;;;;0.00;0.00;;;16.30;99.90;;;;;;5104853;27;20481;-69
2023/07/30 06:31:08;;;;;;;0.15;0.15;;;16.40;99.90;;;;;;5095375;27;20043;-69
2023/07/30 06:33:34;;;;;;;0.90;0.22;;;16.50;99.90;;;;;;5118775;27;20043;-69
2023/07/30 06:35:59;;;;;;;0.40;0.40;;;16.50;99.90;;;;;;5098083;28;20043;-70
2023/07/30 06:38:25;;;;;;;0.52;0.50;;;16.60;99.90;;;;;;5135632;27;20047;-69
2023/07/30 06:40:51;;;;;;;2.63;0.20;;;16.60;99.90;;;;;;5096945;28;20032;-69
2023/07/30 06:43:16;;;;;;;0.85;0.85;;;16.70;99.90;;;;;;5132613;27;20126;-69
2023/07/30 06:45:42;;;;;;;0.55;0.38;;;16.70;99.90;;;;;;5101672;27;20050;-69
2023/07/30 06:48:08;;;;;;;0.65;0.65;;;16.80;99.90;;;;;;5102398;27;20504;-68
2023/07/30 06:50:33;;;;;;;0.68;0.40;;;16.80;99.90;;;;;;5132708;27;20054;-69
2023/07/30 06:52:59;;;;;;;1.00;0.93;;;16.90;99.90;;;;;;5117044;27;20389;-68
2023/07/30 06:55:25;;;;;;;1.45;0.22;;;16.90;99.90;;;;;;5106084;27;20042;-69
2023/07/30 06:57:50;;;;;;;4.57;1.33;;;17.00;99.90;;;;;;5108731;27;20034;-69
2023/07/30 07:00:21;;;;;;;1.20;1.20;;;17.00;99.90;;;;;;5104514;27;20027;-68
2023/07/30 07:02:48;;;;;;;0.30;0.30;;;17.00;99.90;;;;;;5104441;27;20228;-69
2023/07/30 07:05:14;;;;;;;4.38;0.70;;;17.10;99.90;;;;;;5103776;27;20046;-68
2023/07/30 07:07:40;;;;;;;9.80;0.85;;;17.10;99.90;;;;;;5121787;27;20175;-68
2023/07/30 07:10:06;;;;;;;0.57;0.57;;;17.10;99.90;;;;;;5101976;27;20067;-68
2023/07/30 07:12:32;;;;;;;0.93;0.63;;;17.10;99.90;;;;;;5104726;27;20042;-68
2023/07/30 07:14:58;;;;;;;0.85;0.85;;;17.10;99.90;;;;;;5118626;27;20112;-68
2023/07/30 07:17:24;;;;;;;0.20;0.20;;;17.20;99.90;;;;;;5101173;27;20091;-68
2023/07/30 07:19:50;;;;;;;3.30;0.50;;;17.20;99.90;;;;;;5104763;27;20074;-69
2023/07/30 07:22:18;;;;;;;0.30;0.13;;;17.30;99.90;;;;;;5106033;27;20599;-67
2023/07/30 07:24:44;;;;;;;0.85;0.85;;;17.40;99.90;;;;;;5098419;27;20125;-70
2023/07/30 07:27:10;;;;;;;1.75;0.45;;;17.50;99.90;;;;;;5102400;27;20399;-68
2023/07/30 07:29:37;;;;;;;0.10;0.10;;;17.60;99.90;;;;;;5092740;27;20258;-68
2023/07/30 07:32:03;;;;;;;1.23;1.10;;;17.60;99.90;;;;;;5102323;27;20489;-68
2023/07/30 07:34:29;;;;;;;0.38;0.38;;;17.50;99.90;;;;;;5108910;27;20081;-69
2023/07/30 07:36:54;;;;;;;0.10;0.10;;;17.40;99.90;;;;;;5122908;27;20431;-68
2023/07/30 07:39:20;;;;;;;0.93;0.60;;;17.30;99.90;;;;;;5097280;27;20092;-68
2023/07/30 07:41:46;;;;;;;0.90;0.47;;;17.30;99.90;;;;;;5125975;27;20038;-69
2023/07/30 07:44:11;;;;;;;1.75;0.35;;;17.40;99.90;;;;;;5122676;27;20062;-67
2023/07/30 07:46:37;;;;;;;1.55;0.45;;;17.60;99.90;;;;;;5092496;28;20065;-68
2023/07/30 07:49:03;;;;;;;0.70;0.35;;;17.70;99.90;;;;;;5111049;27;20461;-68
2023/07/30 07:51:28;;;;;;;0.80;0.35;;;18.00;99.90;;;;;;5104981;28;20035;-68
2023/07/30 07:53:54;;;;;;;0.38;0.32;;;18.00;99.90;;;;;;5092558;28;20059;-69
2023/07/30 07:56:20;;;;;;;0.47;0.47;;;18.10;99.90;;;;;;5109742;27;20035;-68
2023/07/30 07:58:45;;;;;;;1.77;0.10;;;18.30;99.90;;;;;;5112097;27;20063;-68
2023/07/30 08:01:11;;;;;;;0.32;0.32;;;18.50;99.90;;;;;;5106233;28;20059;-69
2023/07/30 08:03:36;;;;;;;0.47;0.30;;;18.60;99.90;;;;;;5093238;28;20116;-68
2023/07/30 08:06:02;;;;;;;0.20;0.20;;;18.70;99.90;;;;;;5093524;27;20170;-70
2023/07/30 08:08:28;;;;;;;0.20;0.20;;;18.70;99.90;;;;;;5099270;27;20382;-69
2023/07/30 08:10:54;;;;;;;0.30;0.30;;;18.70;99.90;;;;;;5115391;27;20047;-69
2023/07/30 08:13:20;;;;;;;0.80;0.73;;;18.80;99.90;;;;;;5110249;27;20068;-68
2023/07/30 08:15:46;;;;;;;0.70;0.40;;;18.80;99.90;;;;;;5129722;27;20061;-69
2023/07/30 08:18:11;;;;;;;1.50;1.40;;;18.80;99.90;;;;;;5108032;28;20043;-68
2023/07/30 08:20:37;;;;;;;7.10;0.57;;;18.80;99.90;;;;;;5101050;28;20040;-68
2023/07/30 08:23:02;;;;;;;0.25;0.25;;;18.80;99.90;;;;;;5092218;28;20035;-68
2023/07/30 08:25:28;;;;;;;0.75;0.68;;;18.70;99.90;;;;;;5119669;28;20370;-68
2023/07/30 08:27:54;;;;;;;0.77;0.70;;;18.70;99.90;;;;;;5106592;28;20074;-66
2023/07/30 08:30:19;;;;;;;1.23;0.57;;;18.70;99.90;;;;;;5097451;28;20385;-67
2023/07/30 08:32:45;;;;;;;0.47;0.47;;;18.70;99.90;;;;;;5145133;27;20541;-67
2023/07/30 08:35:10;;;;;;;0.82;0.40;;;18.80;99.90;;;;;;5103209;28;20039;-67
2023/07/30 08:37:36;;;;;;;0.75;0.75;;;18.90;99.90;;;;;;5119513;28;20039;-66
2023/07/30 08:40:03;;;;;;;0.70;0.70;;;19.10;99.90;;;;;;5112439;27;20043;-68
2023/07/30 08:42:29;;;;;;;1.48;1.30;;;19.00;99.90;;;;;;5111675;28;20035;-67
2023/07/30 08:44:55;;;;;;;0.20;0.20;;;18.90;99.90;;;;;;5099196;28;20493;-68
2023/07/30 08:47:20;;;;;;;0.25;0.25;;;19.00;99.90;;;;;;5089535;28;20084;-67
2023/07/30 08:49:46;;;;;;;1.00;1.00;;;19.10;99.90;;;;;;5098844;28;20135;-66
2023/07/30 08:52:12;;;;;;;0.73;0.73;;;19.10;99.90;;;;;;5135080;27;20054;-66
2023/07/30 08:54:39;;;;;;;2.83;1.02;;;18.90;99.90;;;;;;5114255;28;20098;-68
2023/07/30 08:57:05;;;;;;;1.00;0.60;;;18.70;99.90;;;;;;5125632;28;20040;-66
2023/07/30 08:59:40;;;;;;;0.98;0.68;;;18.60;99.90;;;;;;5101864;28;20111;-68
2023/07/30 09:02:16;;;;;;;0.20;0.20;;;18.50;99.90;;;;;;5108293;27;20046;-67
2023/07/30 09:04:45;;;;;;;1.05;0.98;;;18.40;99.90;;;;;;5094607;28;20079;-66
2023/07/30 09:07:11;;;;;;;0.95;0.35;;;18.30;99.90;;;;;;5096833;28;20062;-67
2023/07/30 09:09:37;;;;;;;0.00;0.00;;;18.30;99.90;;;;;;5095826;28;20043;-67
2023/07/30 09:12:03;;;;;;;0.65;0.30;;;18.30;99.90;;;;;;5102547;28;20051;-67
2023/07/30 09:14:29;;;;;;;0.50;0.50;;;18.20;99.90;;;;;;5110267;28;20397;-68
2023/07/30 09:16:58;;;;;;;0.55;0.55;;;18.10;99.90;;;;;;5130138;28;20039;-67
2023/07/30 09:19:25;;;;;;;0.82;0.82;;;18.10;99.90;;;;;;5092853;28;20039;-65
2023/07/30 09:21:50;;;;;;;0.20;0.20;;;18.00;99.90;;;;;;5108842;28;20043;-67
2023/07/30 09:24:21;;;;;;;2.08;0.73;;;17.90;99.90;;;;;;5108064;27;20438;-67
2023/07/30 09:26:47;;;;;;;1.88;0.75;;;17.90;99.90;;;;;;5114501;27;20046;-69
2023/07/30 09:29:13;;;;;;;0.35;0.35;;;17.70;99.90;;;;;;5115269;27;20386;-66
2023/07/30 09:31:56;;;;;;;0.40;0.25;;;16.80;99.90;;;;;;5107634;27;20038;-66
2023/07/30 09:34:24;;;;;;;0.28;0.10;;;15.70;99.90;;;;;;5095450;28;20092;-69
2023/07/30 09:36:54;;;;;;;1.40;0.75;;;15.00;99.90;;;;;;5119434;27;20031;-72
2023/07/30 09:39:23;;;;;;;0.00;0.00;;;14.60;99.90;;;;;;5110791;27;20035;-69
2023/07/30 09:42:00;;;;;;;0.28;0.28;;;14.40;99.90;;;;;;5091261;27;20035;-72
2023/07/30 09:44:27;;;;;;;1.58;0.28;;;14.30;99.90;;;;;;5111098;27;20413;-67
2023/07/30 09:46:53;;;;;;;0.38;0.15;;;14.30;99.90;;;;;;5111758;27;20038;-70
2023/07/30 09:49:19;;;;;;;0.43;0.43;;;14.30;99.90;;;;;;5100131;27;20089;-72
2023/07/30 09:51:44;;;;;;;1.25;0.20;;;14.50;99.90;;;;;;5111781;27;20118;-70
2023/07/30 09:54:14;;;;;;;0.20;0.10;;;14.60;99.90;;;;;;5098499;27;20040;-70
2023/07/30 09:56:41;;;;;;;0.13;0.13;;;14.60;99.90;;;;;;5115181;27;20047;-68
2023/07/30 09:59:08;;;;;;;0.47;0.20;;;14.70;99.90;;;;;;5112323;27;20374;-69
2023/07/30 10:01:45;;;;;;;0.10;0.10;;;15.00;99.90;;;;;;5114497;27;20042;-66
2023/07/30 10:04:11;;;;;;;1.23;1.13;;;15.10;99.90;;;;;;5101081;27;20071;-68
2023/07/30 10:06:46;;;;;;;0.10;0.10;;;15.30;99.90;;;;;;5118274;27;20388;-67
2023/07/30 10:09:14;;;;;;;0.50;0.50;;;15.50;99.90;;;;;;5097806;28;20104;-67
2023/07/30 10:11:41;;;;;;;0.10;0.10;;;15.70;99.90;;;;;;5110533;27;20456;-69
2023/07/30 10:14:07;;;;;;;0.15;0.15;;;15.80;99.90;;;;;;5104222;27;20027;-68
2023/07/30 10:16:33;;;;;;;0.45;0.10;;;16.00;99.90;;;;;;5121645;27;20496;-67
2023/07/30 10:18:59;;;;;;;0.15;0.10;;;16.40;99.90;;;;;;5100231;27;20726;-67
2023/07/30 10:21:26;;;;;;;0.32;0.30;;;16.70;99.90;;;;;;5094795;28;20028;-68
2023/07/30 10:24:04;;;;;;;0.10;0.10;;;17.10;99.90;;;;;;5107013;27;20709;-66
2023/07/30 10:26:36;;;;;;;0.28;0.20;;;17.50;99.90;;;;;;5105430;28;20048;-67
2023/07/30 10:29:14;;;;;;;0.63;0.63;;;17.70;99.90;;;;;;5094531;28;20549;-66
2023/07/30 10:31:41;;;;;;;0.43;0.43;;;17.80;99.90;;;;;;5113308;27;20050;-64
2023/07/30 10:34:08;;;;;;;0.80;0.80;;;17.80;99.90;;;;;;5094725;28;20039;-67
2023/07/30 10:36:41;;;;;;;0.20;0.20;;;17.70;99.90;;;;;;5094011;28;20040;-65
2023/07/30 10:39:12;;;;;;;1.38;1.27;;;17.60;99.90;;;;;;5096734;28;20124;-66
2023/07/30 10:41:38;;;;;;;0.20;0.20;;;17.80;99.90;;;;;;5094276;27;20508;-66
2023/07/30 10:44:04;;;;;;;0.20;0.20;;;17.70;99.90;;;;;;5130696;27;20536;-67
2023/07/30 10:46:29;;;;;;;0.75;0.20;;;17.80;99.90;;;;;;5116358;27;20055;-69
2023/07/30 10:48:56;;;;;;;0.30;0.30;;;17.60;99.90;;;;;;5116901;27;20119;-68
2023/07/30 10:51:23;;;;;;;0.13;0.13;;;17.50;99.90;;;;;;5110325;28;20448;-66
2023/07/30 10:53:50;;;;;;;0.10;0.10;;;17.60;99.90;;;;;;5105996;27;20069;-67
2023/07/30 10:56:18;;;;;;;1.33;1.23;;;17.80;99.90;;;;;;5112202;27;20041;-69
2023/07/30 10:58:49;;;;;;;0.38;0.38;;;18.10;99.90;;;;;;5107838;28;20027;-67
2023/07/30 11:01:15;;;;;;;0.95;0.85;;;18.30;99.90;;;;;;5120940;27;20500;-69
2023/07/30 11:03:41;;;;;;;0.85;0.85;;;18.30;99.90;;;;;;5113134;27;20039;-70
2023/07/30 11:06:07;;;;;;;0.10;0.10;;;18.10;99.90;;;;;;5100370;27;20036;-67
2023/07/30 11:08:34;;;;;;;0.47;0.45;;;18.20;99.90;;;;;;5099332;27;20060;-69
2023/07/30 11:11:00;;;;;;;0.55;0.55;;;18.10;99.90;;;;;;5101426;27;20036;-68
2023/07/30 11:13:26;;;;;;;2.08;0.85;;;18.10;99.90;;;;;;5099063;27;20031;-69
2023/07/30 11:15:52;;;;;;;0.20;0.10;;;18.20;99.90;;;;;;5099321;27;20061;-68
2023/07/30 11:18:18;;;;;;;1.20;0.75;;;18.30;99.90;;;;;;5104867;27;20039;-66
2023/07/30 11:20:43;;;;;;;1.88;0.20;;;18.40;99.90;;;;;;5106762;27;20043;-68
2023/07/30 11:23:22;;;;;;;2.25;0.70;;;18.60;99.90;;;;;;5107170;28;20043;-69
2023/07/30 11:25:49;;;;;;;0.22;0.22;;;18.80;99.90;;;;;;5100265;27;20027;-67
2023/07/30 11:28:29;;;;;;;0.10;0.10;;;19.00;99.90;;;;;;5095968;27;20039;-67
2023/07/30 11:31:05;;;;;;;0.10;0.10;;;18.90;99.90;;;;;;5133606;27;20495;-67
2023/07/30 11:33:33;;;;;;;6.13;0.45;;;19.10;99.90;;;;;;5099861;27;20047;-68
2023/07/30 11:36:02;;;;;;;0.60;0.30;;;19.20;99.90;;;;;;5138056;27;20084;-69
2023/07/30 11:38:29;;;;;;;1.27;0.85;;;19.30;99.90;;;;;;5100921;27;20043;-67
2023/07/30 11:40:55;;;;;;;0.13;0.13;;;19.30;99.90;;;;;;5109011;27;20039;-69
2023/07/30 11:43:22;;;;;;;0.30;0.30;;;19.20;99.90;;;;;;5106644;28;20035;-67
2023/07/30 11:45:48;;;;;;;0.20;0.20;;;19.20;99.90;;;;;;5108419;27;20084;-68
2023/07/30 11:48:14;;;;;;;0.70;0.65;;;19.10;99.90;;;;;;5100492;27;20039;-66
2023/07/30 11:50:51;;;;;;;0.57;0.57;;;19.10;99.90;;;;;;5108515;27;20031;-69
2023/07/30 11:53:18;;;;;;;0.10;0.10;;;19.10;99.90;;;;;;5111736;27;20077;-66
2023/07/30 11:55:45;;;;;;;0.30;0.30;;;19.10;99.90;;;;;;5096633;28;20036;-67
2023/07/30 11:58:12;;;;;;;0.03;0.03;;;19.10;99.90;;;;;;5103964;27;20035;-67
2023/07/30 12:00:40;;;;;;;0.10;0.10;;;19.00;99.90;;;;;;5102965;27;20465;-67
2023/07/30 12:03:08;;;;;;;0.20;0.20;;;19.10;99.90;;;;;;5096560;28;20370;-69
2023/07/30 12:05:36;;;;;;;0.22;0.22;;;19.20;99.90;;;;;;5096615;28;20385;-66
2023/07/30 12:08:08;;;;;;;0.10;0.10;;;19.20;99.90;;;;;;5098946;27;20054;-67
2023/07/30 12:10:44;;;;;;;0.10;0.10;;;19.10;99.90;;;;;;5101691;27;20385;-68
2023/07/30 12:13:17;;;;;;;0.10;0.10;;;19.10;99.90;;;;;;5101369;27;20038;-66
2023/07/30 12:15:53;;;;;;;0.10;0.10;;;19.20;99.90;;;;;;5104816;27;20102;-69
2023/07/30 12:18:20;;;;;;;0.10;0.00;;;19.30;99.90;;;;;;5099756;27;20075;-67
2023/07/30 12:20:50;;;;;;;0.93;0.40;;;19.40;99.90;;;;;;5104230;28;20023;-66
2023/07/30 12:23:16;;;;;;;0.10;0.10;;;19.60;99.90;;;;;;5099786;27;20066;-67
2023/07/30 12:25:41;;;;;;;0.20;0.20;;;19.70;99.90;;;;;;5098951;28;20089;-67
2023/07/30 12:28:07;;;;;;;0.60;0.60;;;19.70;99.90;;;;;;5096713;28;20048;-65
2023/07/30 12:30:33;;;;;;;0.25;0.20;;;19.70;99.90;;;;;;5116442;28;20045;-69
2023/07/30 12:32:59;;;;;;;1.65;0.20;;;19.70;99.90;;;;;;5107922;28;20045;-68
2023/07/30 12:35:24;;;;;;;0.10;0.10;;;19.50;99.90;;;;;;5101786;27;20080;-67
2023/07/30 12:37:50;;;;;;;0.15;0.15;;;19.00;99.90;;;;;;5103301;28;20035;-67
2023/07/30 12:40:17;;;;;;;1.00;0.60;;;18.60;99.90;;;;;;5103142;28;20451;-66
2023/07/30 12:42:42;;;;;;;0.98;0.57;;;18.40;99.90;;;;;;5106388;28;20043;-67
2023/07/30 12:45:08;;;;;;;0.20;0.20;;;18.20;99.90;;;;;;5102595;28;20046;-67